sensor_id;sensor_type;location;lat;lon;timestamp;P1;durP1;ratioP1;P2;durP2;ratioP2
9056;SDS011;4563;54.756;9.400;2024-02-15T00:00:10;0.27;;;0.27;;
9056;SDS011;4563;54.756;9.400;2024-02-15T00:02:38;0.10;;;0.10;;
9056;SDS011;4563;54.756;9.400;2024-02-15T00:05:05;0.00;;;0.00;;
9056;SDS011;4563;54.756;9.400;2024-02-15T00:07:33;0.10;;;0.10;;
9056;SDS011;4563;54.756;9.400;2024-02-15T00:10:01;0.07;;;0.07;;
9056;SDS011;4563;54.756;9.400;2024-02-15T00:12:28;0.00;;;0.00;;
9056;SDS011;4563;54.756;9.400;2024-02-15T00:14:55;0.00;;;0.00;;
9056;SDS011;4563;54.756;9.400;2024-02-15T00:17:23;0.00;;;0.00;;
9056;SDS011;4563;54.756;9.400;2024-02-15T00:19:51;0.00;;;0.00;;
9056;SDS011;4563;54.756;9.400;2024-02-15T00:22:17;0.10;;;0.10;;
9056;SDS011;4563;54.756;9.400;2024-02-15T00:24:44;0.10;;;0.10;;
9056;SDS011;4563;54.756;9.400;2024-02-15T00:27:11;0.10;;;0.10;;
9056;SDS011;4563;54.756;9.400;2024-02-15T00:29:38;0.07;;;0.07;;
9056;SDS011;4563;54.756;9.400;2024-02-15T00:32:06;0.00;;;0.00;;
9056;SDS011;4563;54.756;9.400;2024-02-15T00:34:33;0.00;;;0.00;;
9056;SDS011;4563;54.756;9.400;2024-02-15T00:37:01;0.00;;;0.00;;
9056;SDS011;4563;54.756;9.400;2024-02-15T00:39:27;0.00;;;0.00;;
9056;SDS011;4563;54.756;9.400;2024-02-15T00:41:54;0.10;;;0.10;;
9056;SDS011;4563;54.756;9.400;2024-02-15T00:44:21;0.10;;;0.10;;
9056;SDS011;4563;54.756;9.400;2024-02-15T00:46:48;0.00;;;0.00;;
9056;SDS011;4563;54.756;9.400;2024-02-15T00:49:15;0.10;;;0.10;;
9056;SDS011;4563;54.756;9.400;2024-02-15T00:51:41;0.10;;;0.10;;
9056;SDS011;4563;54.756;9.400;2024-02-15T00:54:09;0.10;;;0.10;;
9056;SDS011;4563;54.756;9.400;2024-02-15T00:56:36;0.10;;;0.10;;
9056;SDS011;4563;54.756;9.400;2024-02-15T00:59:03;0.07;;;0.07;;
9056;SDS011;4563;54.756;9.400;2024-02-15T01:01:31;0.10;;;0.10;;
9056;SDS011;4563;54.756;9.400;2024-02-15T01:03:58;0.10;;;0.10;;
9056;SDS011;4563;54.756;9.400;2024-02-15T01:06:25;0.30;;;0.30;;
9056;SDS011;4563;54.756;9.400;2024-02-15T01:08:51;0.20;;;0.20;;
9056;SDS011;4563;54.756;9.400;2024-02-15T01:11:20;0.20;;;0.20;;
9056;SDS011;4563;54.756;9.400;2024-02-15T01:13:46;0.00;;;0.00;;
9056;SDS011;4563;54.756;9.400;2024-02-15T01:16:13;0.10;;;0.10;;
9056;SDS011;4563;54.756;9.400;2024-02-15T01:18:40;0.20;;;0.20;;
9056;SDS011;4563;54.756;9.400;2024-02-15T01:21:07;0.10;;;0.10;;
9056;SDS011;4563;54.756;9.400;2024-02-15T01:23:36;0.10;;;0.10;;
9056;SDS011;4563;54.756;9.400;2024-02-15T01:26:03;0.10;;;0.10;;
9056;SDS011;4563;54.756;9.400;2024-02-15T01:28:31;0.00;;;0.00;;
9056;SDS011;4563;54.756;9.400;2024-02-15T01:30:58;0.20;;;0.20;;
9056;SDS011;4563;54.756;9.400;2024-02-15T01:33:25;0.10;;;0.10;;
9056;SDS011;4563;54.756;9.400;2024-02-15T01:35:51;0.20;;;0.20;;
9056;SDS011;4563;54.756;9.400;2024-02-15T01:38:18;0.07;;;0.07;;
9056;SDS011;4563;54.756;9.400;2024-02-15T01:40:46;0.10;;;0.10;;
9056;SDS011;4563;54.756;9.400;2024-02-15T01:43:14;0.10;;;0.10;;
9056;SDS011;4563;54.756;9.400;2024-02-15T01:45:42;0.10;;;0.10;;
9056;SDS011;4563;54.756;9.400;2024-02-15T01:48:09;0.10;;;0.10;;
9056;SDS011;4563;54.756;9.400;2024-02-15T01:50:36;0.10;;;0.10;;
9056;SDS011;4563;54.756;9.400;2024-02-15T01:53:03;0.10;;;0.10;;
9056;SDS011;4563;54.756;9.400;2024-02-15T01:55:33;0.13;;;0.13;;
9056;SDS011;4563;54.756;9.400;2024-02-15T01:58:00;0.10;;;0.10;;
9056;SDS011;4563;54.756;9.400;2024-02-15T02:00:28;0.20;;;0.20;;
9056;SDS011;4563;54.756;9.400;2024-02-15T02:02:57;0.20;;;0.20;;
9056;SDS011;4563;54.756;9.400;2024-02-15T02:05:27;0.20;;;0.20;;
9056;SDS011;4563;54.756;9.400;2024-02-15T02:07:55;0.20;;;0.20;;
9056;SDS011;4563;54.756;9.400;2024-02-15T02:10:24;0.10;;;0.10;;
9056;SDS011;4563;54.756;9.400;2024-02-15T02:12:52;0.10;;;0.10;;
9056;SDS011;4563;54.756;9.400;2024-02-15T02:15:19;0.10;;;0.10;;
9056;SDS011;4563;54.756;9.400;2024-02-15T02:17:48;0.10;;;0.10;;
9056;SDS011;4563;54.756;9.400;2024-02-15T02:20:17;0.20;;;0.20;;
9056;SDS011;4563;54.756;9.400;2024-02-15T02:22:44;0.10;;;0.10;;
9056;SDS011;4563;54.756;9.400;2024-02-15T02:25:18;0.10;;;0.10;;
9056;SDS011;4563;54.756;9.400;2024-02-15T02:27:45;0.10;;;0.10;;
9056;SDS011;4563;54.756;9.400;2024-02-15T02:30:14;0.10;;;0.10;;
9056;SDS011;4563;54.756;9.400;2024-02-15T02:32:43;0.10;;;0.10;;
9056;SDS011;4563;54.756;9.400;2024-02-15T02:35:10;0.10;;;0.10;;
9056;SDS011;4563;54.756;9.400;2024-02-15T02:37:38;0.10;;;0.10;;
9056;SDS011;4563;54.756;9.400;2024-02-15T02:40:05;0.10;;;0.10;;
9056;SDS011;4563;54.756;9.400;2024-02-15T02:42:35;0.00;;;0.00;;
9056;SDS011;4563;54.756;9.400;2024-02-15T02:45:02;0.10;;;0.10;;
9056;SDS011;4563;54.756;9.400;2024-02-15T02:47:30;0.10;;;0.10;;
9056;SDS011;4563;54.756;9.400;2024-02-15T02:49:57;0.10;;;0.10;;
9056;SDS011;4563;54.756;9.400;2024-02-15T02:52:23;0.00;;;0.00;;
9056;SDS011;4563;54.756;9.400;2024-02-15T02:54:50;0.10;;;0.10;;
9056;SDS011;4563;54.756;9.400;2024-02-15T02:57:17;0.10;;;0.10;;
9056;SDS011;4563;54.756;9.400;2024-02-15T02:59:45;0.00;;;0.00;;
9056;SDS011;4563;54.756;9.400;2024-02-15T03:02:12;0.10;;;0.10;;
9056;SDS011;4563;54.756;9.400;2024-02-15T03:04:39;0.10;;;0.10;;
9056;SDS011;4563;54.756;9.400;2024-02-15T03:07:06;0.20;;;0.20;;
9056;SDS011;4563;54.756;9.400;2024-02-15T03:09:33;0.10;;;0.10;;
9056;SDS011;4563;54.756;9.400;2024-02-15T03:12:02;0.20;;;0.20;;
9056;SDS011;4563;54.756;9.400;2024-02-15T03:14:29;0.20;;;0.20;;
9056;SDS011;4563;54.756;9.400;2024-02-15T03:16:57;0.10;;;0.10;;
9056;SDS011;4563;54.756;9.400;2024-02-15T03:19:24;0.10;;;0.10;;
9056;SDS011;4563;54.756;9.400;2024-02-15T03:21:51;0.10;;;0.10;;
9056;SDS011;4563;54.756;9.400;2024-02-15T03:24:18;0.13;;;0.10;;
9056;SDS011;4563;54.756;9.400;2024-02-15T03:26:45;0.10;;;0.10;;
9056;SDS011;4563;54.756;9.400;2024-02-15T03:29:12;0.20;;;0.20;;
9056;SDS011;4563;54.756;9.400;2024-02-15T03:31:39;0.13;;;0.13;;
9056;SDS011;4563;54.756;9.400;2024-02-15T03:34:07;0.10;;;0.10;;
9056;SDS011;4563;54.756;9.400;2024-02-15T03:36:35;0.10;;;0.10;;
9056;SDS011;4563;54.756;9.400;2024-02-15T03:39:03;0.10;;;0.10;;
9056;SDS011;4563;54.756;9.400;2024-02-15T03:41:31;0.00;;;0.00;;
9056;SDS011;4563;54.756;9.400;2024-02-15T03:43:58;0.20;;;0.20;;
9056;SDS011;4563;54.756;9.400;2024-02-15T03:46:25;0.07;;;0.07;;
9056;SDS011;4563;54.756;9.400;2024-02-15T03:48:52;0.10;;;0.10;;
9056;SDS011;4563;54.756;9.400;2024-02-15T03:51:23;0.00;;;0.00;;
9056;SDS011;4563;54.756;9.400;2024-02-15T03:53:50;0.07;;;0.07;;
9056;SDS011;4563;54.756;9.400;2024-02-15T03:56:17;0.00;;;0.00;;
9056;SDS011;4563;54.756;9.400;2024-02-15T03:58:46;0.00;;;0.00;;
9056;SDS011;4563;54.756;9.400;2024-02-15T04:01:13;0.10;;;0.10;;
9056;SDS011;4563;54.756;9.400;2024-02-15T04:03:40;0.00;;;0.00;;
9056;SDS011;4563;54.756;9.400;2024-02-15T04:06:07;0.00;;;0.00;;
9056;SDS011;4563;54.756;9.400;2024-02-15T04:08:37;0.00;;;0.00;;
9056;SDS011;4563;54.756;9.400;2024-02-15T04:11:04;0.10;;;0.10;;
9056;SDS011;4563;54.756;9.400;2024-02-15T04:13:32;0.10;;;0.10;;
9056;SDS011;4563;54.756;9.400;2024-02-15T04:15:59;0.10;;;0.10;;
9056;SDS011;4563;54.756;9.400;2024-02-15T04:18:26;0.20;;;0.20;;
9056;SDS011;4563;54.756;9.400;2024-02-15T04:20:57;0.17;;;0.17;;
9056;SDS011;4563;54.756;9.400;2024-02-15T04:23:24;0.10;;;0.10;;
9056;SDS011;4563;54.756;9.400;2024-02-15T04:25:52;0.10;;;0.10;;
9056;SDS011;4563;54.756;9.400;2024-02-15T04:28:19;0.30;;;0.10;;
9056;SDS011;4563;54.756;9.400;2024-02-15T04:30:46;0.10;;;0.10;;
9056;SDS011;4563;54.756;9.400;2024-02-15T04:33:14;0.20;;;0.20;;
9056;SDS011;4563;54.756;9.400;2024-02-15T04:35:41;0.13;;;0.13;;
9056;SDS011;4563;54.756;9.400;2024-02-15T04:38:08;0.20;;;0.20;;
9056;SDS011;4563;54.756;9.400;2024-02-15T04:40:35;0.20;;;0.20;;
9056;SDS011;4563;54.756;9.400;2024-02-15T04:43:05;0.20;;;0.20;;
9056;SDS011;4563;54.756;9.400;2024-02-15T04:45:34;0.20;;;0.20;;
9056;SDS011;4563;54.756;9.400;2024-02-15T04:48:01;0.20;;;0.20;;
9056;SDS011;4563;54.756;9.400;2024-02-15T04:50:28;0.20;;;0.20;;
9056;SDS011;4563;54.756;9.400;2024-02-15T04:52:55;0.30;;;0.30;;
9056;SDS011;4563;54.756;9.400;2024-02-15T04:55:22;0.20;;;0.20;;
9056;SDS011;4563;54.756;9.400;2024-02-15T04:57:51;0.20;;;0.20;;
9056;SDS011;4563;54.756;9.400;2024-02-15T05:00:21;0.30;;;0.23;;
9056;SDS011;4563;54.756;9.400;2024-02-15T05:02:50;0.20;;;0.20;;
9056;SDS011;4563;54.756;9.400;2024-02-15T05:05:23;0.30;;;0.30;;
9056;SDS011;4563;54.756;9.400;2024-02-15T05:07:52;0.30;;;0.30;;
9056;SDS011;4563;54.756;9.400;2024-02-15T05:10:19;0.20;;;0.20;;
9056;SDS011;4563;54.756;9.400;2024-02-15T05:12:46;0.30;;;0.30;;
9056;SDS011;4563;54.756;9.400;2024-02-15T05:15:14;0.37;;;0.37;;
9056;SDS011;4563;54.756;9.400;2024-02-15T05:17:44;0.30;;;0.30;;
9056;SDS011;4563;54.756;9.400;2024-02-15T05:20:12;0.40;;;0.40;;
9056;SDS011;4563;54.756;9.400;2024-02-15T05:22:40;0.40;;;0.40;;
9056;SDS011;4563;54.756;9.400;2024-02-15T05:25:12;0.43;;;0.43;;
9056;SDS011;4563;54.756;9.400;2024-02-15T05:27:40;0.47;;;0.47;;
9056;SDS011;4563;54.756;9.400;2024-02-15T05:30:09;0.40;;;0.40;;
9056;SDS011;4563;54.756;9.400;2024-02-15T05:32:40;0.50;;;0.50;;
9056;SDS011;4563;54.756;9.400;2024-02-15T05:35:09;0.40;;;0.40;;
9056;SDS011;4563;54.756;9.400;2024-02-15T05:37:36;0.40;;;0.40;;
9056;SDS011;4563;54.756;9.400;2024-02-15T05:40:04;0.40;;;0.40;;
9056;SDS011;4563;54.756;9.400;2024-02-15T05:42:32;0.43;;;0.43;;
9056;SDS011;4563;54.756;9.400;2024-02-15T05:45:14;0.40;;;0.40;;
9056;SDS011;4563;54.756;9.400;2024-02-15T05:47:55;0.40;;;0.40;;
9056;SDS011;4563;54.756;9.400;2024-02-15T05:50:23;0.40;;;0.40;;
9056;SDS011;4563;54.756;9.400;2024-02-15T05:52:52;0.50;;;0.50;;
9056;SDS011;4563;54.756;9.400;2024-02-15T05:55:20;0.57;;;0.57;;
9056;SDS011;4563;54.756;9.400;2024-02-15T05:57:47;0.40;;;0.40;;
9056;SDS011;4563;54.756;9.400;2024-02-15T06:00:14;0.40;;;0.40;;
9056;SDS011;4563;54.756;9.400;2024-02-15T06:02:43;0.60;;;0.60;;
9056;SDS011;4563;54.756;9.400;2024-02-15T06:05:10;0.60;;;0.60;;
9056;SDS011;4563;54.756;9.400;2024-02-15T06:07:38;0.70;;;0.70;;
9056;SDS011;4563;54.756;9.400;2024-02-15T06:10:06;0.53;;;0.53;;
9056;SDS011;4563;54.756;9.400;2024-02-15T06:12:33;0.50;;;0.50;;
9056;SDS011;4563;54.756;9.400;2024-02-15T06:15:00;0.57;;;0.57;;
9056;SDS011;4563;54.756;9.400;2024-02-15T06:17:30;0.50;;;0.50;;
9056;SDS011;4563;54.756;9.400;2024-02-15T06:19:57;0.60;;;0.60;;
9056;SDS011;4563;54.756;9.400;2024-02-15T06:22:24;0.40;;;0.40;;
9056;SDS011;4563;54.756;9.400;2024-02-15T06:24:53;0.60;;;0.60;;
9056;SDS011;4563;54.756;9.400;2024-02-15T06:27:20;0.50;;;0.50;;
9056;SDS011;4563;54.756;9.400;2024-02-15T06:29:49;0.50;;;0.50;;
9056;SDS011;4563;54.756;9.400;2024-02-15T06:32:33;0.40;;;0.40;;
9056;SDS011;4563;54.756;9.400;2024-02-15T06:35:18;0.50;;;0.50;;
9056;SDS011;4563;54.756;9.400;2024-02-15T06:38:02;0.50;;;0.50;;
9056;SDS011;4563;54.756;9.400;2024-02-15T06:40:47;0.50;;;0.50;;
9056;SDS011;4563;54.756;9.400;2024-02-15T06:43:14;0.70;;;0.70;;
9056;SDS011;4563;54.756;9.400;2024-02-15T06:45:42;0.60;;;0.60;;
9056;SDS011;4563;54.756;9.400;2024-02-15T06:48:11;0.40;;;0.40;;
9056;SDS011;4563;54.756;9.400;2024-02-15T06:50:38;0.40;;;0.40;;
9056;SDS011;4563;54.756;9.400;2024-02-15T06:53:05;0.50;;;0.50;;
9056;SDS011;4563;54.756;9.400;2024-02-15T06:55:33;0.80;;;0.80;;
9056;SDS011;4563;54.756;9.400;2024-02-15T06:58:03;0.67;;;0.67;;
9056;SDS011;4563;54.756;9.400;2024-02-15T07:00:30;0.40;;;0.40;;
9056;SDS011;4563;54.756;9.400;2024-02-15T07:02:57;0.60;;;0.60;;
9056;SDS011;4563;54.756;9.400;2024-02-15T07:05:24;0.50;;;0.50;;
9056;SDS011;4563;54.756;9.400;2024-02-15T07:07:53;0.50;;;0.50;;
9056;SDS011;4563;54.756;9.400;2024-02-15T07:10:20;0.43;;;0.43;;
9056;SDS011;4563;54.756;9.400;2024-02-15T07:12:47;0.40;;;0.40;;
9056;SDS011;4563;54.756;9.400;2024-02-15T07:15:16;0.40;;;0.40;;
9056;SDS011;4563;54.756;9.400;2024-02-15T07:17:42;0.50;;;0.50;;
9056;SDS011;4563;54.756;9.400;2024-02-15T07:20:10;0.40;;;0.40;;
9056;SDS011;4563;54.756;9.400;2024-02-15T07:22:42;0.40;;;0.40;;
9056;SDS011;4563;54.756;9.400;2024-02-15T07:25:10;0.50;;;0.50;;
9056;SDS011;4563;54.756;9.400;2024-02-15T07:27:37;0.60;;;0.60;;
9056;SDS011;4563;54.756;9.400;2024-02-15T07:30:04;0.40;;;0.40;;
9056;SDS011;4563;54.756;9.400;2024-02-15T07:32:35;0.43;;;0.43;;
9056;SDS011;4563;54.756;9.400;2024-02-15T07:35:02;0.30;;;0.30;;
9056;SDS011;4563;54.756;9.400;2024-02-15T07:37:30;0.40;;;0.40;;
9056;SDS011;4563;54.756;9.400;2024-02-15T07:39:57;0.40;;;0.40;;
9056;SDS011;4563;54.756;9.400;2024-02-15T07:42:24;0.30;;;0.30;;
9056;SDS011;4563;54.756;9.400;2024-02-15T07:44:53;0.40;;;0.40;;
9056;SDS011;4563;54.756;9.400;2024-02-15T07:47:20;0.40;;;0.40;;
9056;SDS011;4563;54.756;9.400;2024-02-15T07:49:50;0.90;;;0.90;;
9056;SDS011;4563;54.756;9.400;2024-02-15T07:52:17;0.50;;;0.50;;
9056;SDS011;4563;54.756;9.400;2024-02-15T07:54:44;0.30;;;0.30;;
9056;SDS011;4563;54.756;9.400;2024-02-15T07:57:11;0.53;;;0.53;;
9056;SDS011;4563;54.756;9.400;2024-02-15T07:59:39;0.30;;;0.30;;
9056;SDS011;4563;54.756;9.400;2024-02-15T08:02:07;0.40;;;0.40;;
9056;SDS011;4563;54.756;9.400;2024-02-15T08:04:34;0.40;;;0.40;;
9056;SDS011;4563;54.756;9.400;2024-02-15T08:07:07;0.40;;;0.40;;
9056;SDS011;4563;54.756;9.400;2024-02-15T08:09:36;0.30;;;0.30;;
9056;SDS011;4563;54.756;9.400;2024-02-15T08:12:03;0.40;;;0.40;;
9056;SDS011;4563;54.756;9.400;2024-02-15T08:14:30;0.40;;;0.40;;
9056;SDS011;4563;54.756;9.400;2024-02-15T08:16:57;0.40;;;0.40;;
9056;SDS011;4563;54.756;9.400;2024-02-15T08:19:24;0.40;;;0.40;;
9056;SDS011;4563;54.756;9.400;2024-02-15T08:21:54;0.40;;;0.40;;
9056;SDS011;4563;54.756;9.400;2024-02-15T08:24:22;0.30;;;0.30;;
9056;SDS011;4563;54.756;9.400;2024-02-15T08:26:49;0.30;;;0.30;;
9056;SDS011;4563;54.756;9.400;2024-02-15T08:29:18;0.40;;;0.40;;
9056;SDS011;4563;54.756;9.400;2024-02-15T08:31:45;0.30;;;0.30;;
9056;SDS011;4563;54.756;9.400;2024-02-15T08:34:14;0.30;;;0.30;;
9056;SDS011;4563;54.756;9.400;2024-02-15T08:36:43;0.50;;;0.30;;
9056;SDS011;4563;54.756;9.400;2024-02-15T08:39:10;0.23;;;0.23;;
9056;SDS011;4563;54.756;9.400;2024-02-15T08:41:38;0.20;;;0.20;;
9056;SDS011;4563;54.756;9.400;2024-02-15T08:44:05;0.40;;;0.40;;
9056;SDS011;4563;54.756;9.400;2024-02-15T08:46:36;0.30;;;0.30;;
9056;SDS011;4563;54.756;9.400;2024-02-15T08:49:03;0.30;;;0.30;;
9056;SDS011;4563;54.756;9.400;2024-02-15T08:51:30;0.30;;;0.30;;
9056;SDS011;4563;54.756;9.400;2024-02-15T08:53:57;0.20;;;0.20;;
9056;SDS011;4563;54.756;9.400;2024-02-15T08:56:25;0.20;;;0.20;;
9056;SDS011;4563;54.756;9.400;2024-02-15T08:58:53;0.37;;;0.30;;
9056;SDS011;4563;54.756;9.400;2024-02-15T09:01:20;0.27;;;0.27;;
9056;SDS011;4563;54.756;9.400;2024-02-15T09:03:47;0.20;;;0.20;;
9056;SDS011;4563;54.756;9.400;2024-02-15T09:06:14;0.23;;;0.23;;
9056;SDS011;4563;54.756;9.400;2024-02-15T09:08:41;0.20;;;0.20;;
9056;SDS011;4563;54.756;9.400;2024-02-15T09:11:08;0.17;;;0.17;;
9056;SDS011;4563;54.756;9.400;2024-02-15T09:13:37;0.10;;;0.10;;
9056;SDS011;4563;54.756;9.400;2024-02-15T09:16:05;0.10;;;0.10;;
9056;SDS011;4563;54.756;9.400;2024-02-15T09:18:32;0.20;;;0.20;;
9056;SDS011;4563;54.756;9.400;2024-02-15T09:20:59;0.20;;;0.20;;
9056;SDS011;4563;54.756;9.400;2024-02-15T09:23:26;0.10;;;0.10;;
9056;SDS011;4563;54.756;9.400;2024-02-15T09:25:53;0.20;;;0.20;;
9056;SDS011;4563;54.756;9.400;2024-02-15T09:28:20;0.30;;;0.30;;
9056;SDS011;4563;54.756;9.400;2024-02-15T09:30:47;0.10;;;0.10;;
9056;SDS011;4563;54.756;9.400;2024-02-15T09:33:17;0.20;;;0.20;;
9056;SDS011;4563;54.756;9.400;2024-02-15T09:35:46;0.20;;;0.20;;
9056;SDS011;4563;54.756;9.400;2024-02-15T09:38:13;0.20;;;0.20;;
9056;SDS011;4563;54.756;9.400;2024-02-15T09:40:42;0.20;;;0.20;;
9056;SDS011;4563;54.756;9.400;2024-02-15T09:43:09;0.20;;;0.20;;
9056;SDS011;4563;54.756;9.400;2024-02-15T09:45:38;0.20;;;0.20;;
9056;SDS011;4563;54.756;9.400;2024-02-15T09:48:05;0.27;;;0.27;;
9056;SDS011;4563;54.756;9.400;2024-02-15T09:50:35;0.20;;;0.20;;
9056;SDS011;4563;54.756;9.400;2024-02-15T09:53:07;0.30;;;0.30;;
9056;SDS011;4563;54.756;9.400;2024-02-15T09:55:35;0.20;;;0.20;;
9056;SDS011;4563;54.756;9.400;2024-02-15T09:58:02;0.30;;;0.30;;
9056;SDS011;4563;54.756;9.400;2024-02-15T10:00:31;0.30;;;0.30;;
9056;SDS011;4563;54.756;9.400;2024-02-15T10:03:00;0.20;;;0.20;;
9056;SDS011;4563;54.756;9.400;2024-02-15T10:05:28;0.30;;;0.30;;
9056;SDS011;4563;54.756;9.400;2024-02-15T10:07:57;0.20;;;0.20;;
9056;SDS011;4563;54.756;9.400;2024-02-15T10:10:26;0.30;;;0.30;;
9056;SDS011;4563;54.756;9.400;2024-02-15T10:12:54;0.30;;;0.30;;
9056;SDS011;4563;54.756;9.400;2024-02-15T10:15:27;0.30;;;0.30;;
9056;SDS011;4563;54.756;9.400;2024-02-15T10:17:59;0.20;;;0.20;;
9056;SDS011;4563;54.756;9.400;2024-02-15T10:20:27;0.30;;;0.30;;
9056;SDS011;4563;54.756;9.400;2024-02-15T10:23:08;0.20;;;0.20;;
9056;SDS011;4563;54.756;9.400;2024-02-15T10:25:36;0.30;;;0.30;;
9056;SDS011;4563;54.756;9.400;2024-02-15T10:28:03;0.20;;;0.20;;
9056;SDS011;4563;54.756;9.400;2024-02-15T10:30:32;0.20;;;0.20;;
9056;SDS011;4563;54.756;9.400;2024-02-15T10:33:00;0.23;;;0.23;;
9056;SDS011;4563;54.756;9.400;2024-02-15T10:35:27;0.20;;;0.20;;
9056;SDS011;4563;54.756;9.400;2024-02-15T10:38:04;0.33;;;0.33;;
9056;SDS011;4563;54.756;9.400;2024-02-15T10:40:34;0.27;;;0.27;;
9056;SDS011;4563;54.756;9.400;2024-02-15T10:43:02;0.30;;;0.30;;
9056;SDS011;4563;54.756;9.400;2024-02-15T10:45:30;0.20;;;0.20;;
9056;SDS011;4563;54.756;9.400;2024-02-15T10:47:57;0.53;;;0.33;;
9056;SDS011;4563;54.756;9.400;2024-02-15T10:50:24;0.10;;;0.10;;
9056;SDS011;4563;54.756;9.400;2024-02-15T10:52:54;0.30;;;0.30;;
9056;SDS011;4563;54.756;9.400;2024-02-15T10:55:29;0.30;;;0.30;;
9056;SDS011;4563;54.756;9.400;2024-02-15T10:58:05;0.63;;;0.27;;
9056;SDS011;4563;54.756;9.400;2024-02-15T11:00:32;0.20;;;0.20;;
9056;SDS011;4563;54.756;9.400;2024-02-15T11:03:02;0.30;;;0.30;;
9056;SDS011;4563;54.756;9.400;2024-02-15T11:05:31;0.30;;;0.30;;
9056;SDS011;4563;54.756;9.400;2024-02-15T11:08:00;0.20;;;0.20;;
9056;SDS011;4563;54.756;9.400;2024-02-15T11:10:30;0.20;;;0.20;;
9056;SDS011;4563;54.756;9.400;2024-02-15T11:12:58;0.30;;;0.30;;
9056;SDS011;4563;54.756;9.400;2024-02-15T11:15:39;0.20;;;0.20;;
9056;SDS011;4563;54.756;9.400;2024-02-15T11:18:10;0.23;;;0.10;;
9056;SDS011;4563;54.756;9.400;2024-02-15T11:20:46;0.10;;;0.10;;
9056;SDS011;4563;54.756;9.400;2024-02-15T11:23:27;0.10;;;0.10;;
9056;SDS011;4563;54.756;9.400;2024-02-15T11:25:56;0.10;;;0.10;;
9056;SDS011;4563;54.756;9.400;2024-02-15T11:28:43;0.10;;;0.10;;
9056;SDS011;4563;54.756;9.400;2024-02-15T11:40:17;0.57;;;0.17;;
9056;SDS011;4563;54.756;9.400;2024-02-15T11:42:46;0.10;;;0.10;;
9056;SDS011;4563;54.756;9.400;2024-02-15T11:45:14;0.10;;;0.10;;
9056;SDS011;4563;54.756;9.400;2024-02-15T11:47:43;0.20;;;0.20;;
9056;SDS011;4563;54.756;9.400;2024-02-15T11:50:15;0.10;;;0.10;;
9056;SDS011;4563;54.756;9.400;2024-02-15T11:52:42;0.10;;;0.10;;
9056;SDS011;4563;54.756;9.400;2024-02-15T11:55:11;0.20;;;0.20;;
9056;SDS011;4563;54.756;9.400;2024-02-15T11:57:39;0.20;;;0.20;;
9056;SDS011;4563;54.756;9.400;2024-02-15T12:00:20;0.20;;;0.20;;
9056;SDS011;4563;54.756;9.400;2024-02-15T12:03:05;0.10;;;0.10;;
9056;SDS011;4563;54.756;9.400;2024-02-15T12:05:50;0.20;;;0.20;;
9056;SDS011;4563;54.756;9.400;2024-02-15T12:08:35;0.10;;;0.10;;
9056;SDS011;4563;54.756;9.400;2024-02-15T12:11:15;0.20;;;0.20;;
9056;SDS011;4563;54.756;9.400;2024-02-15T12:14:00;0.10;;;0.10;;
9056;SDS011;4563;54.756;9.400;2024-02-15T12:16:45;0.20;;;0.20;;
9056;SDS011;4563;54.756;9.400;2024-02-15T12:19:30;0.10;;;0.10;;
9056;SDS011;4563;54.756;9.400;2024-02-15T12:21:56;0.10;;;0.10;;
9056;SDS011;4563;54.756;9.400;2024-02-15T12:24:24;0.20;;;0.20;;
9056;SDS011;4563;54.756;9.400;2024-02-15T12:26:59;0.20;;;0.20;;
9056;SDS011;4563;54.756;9.400;2024-02-15T12:29:27;0.20;;;0.20;;
9056;SDS011;4563;54.756;9.400;2024-02-15T12:31:56;0.20;;;0.20;;
9056;SDS011;4563;54.756;9.400;2024-02-15T12:34:23;0.10;;;0.10;;
9056;SDS011;4563;54.756;9.400;2024-02-15T12:36:50;0.17;;;0.17;;
9056;SDS011;4563;54.756;9.400;2024-02-15T12:39:23;0.20;;;0.20;;
9056;SDS011;4563;54.756;9.400;2024-02-15T12:41:53;0.20;;;0.20;;
9056;SDS011;4563;54.756;9.400;2024-02-15T12:44:19;0.50;;;0.17;;
9056;SDS011;4563;54.756;9.400;2024-02-15T12:46:47;0.10;;;0.10;;
9056;SDS011;4563;54.756;9.400;2024-02-15T12:49:28;0.17;;;0.17;;
9056;SDS011;4563;54.756;9.400;2024-02-15T12:55:10;0.20;;;0.20;;
9056;SDS011;4563;54.756;9.400;2024-02-15T12:57:38;0.10;;;0.10;;
9056;SDS011;4563;54.756;9.400;2024-02-15T13:00:10;0.10;;;0.10;;
9056;SDS011;4563;54.756;9.400;2024-02-15T13:02:42;0.20;;;0.20;;
9056;SDS011;4563;54.756;9.400;2024-02-15T13:05:11;0.10;;;0.10;;
9056;SDS011;4563;54.756;9.400;2024-02-15T13:07:38;0.13;;;0.13;;
9056;SDS011;4563;54.756;9.400;2024-02-15T13:10:06;0.10;;;0.10;;
9056;SDS011;4563;54.756;9.400;2024-02-15T13:12:33;0.13;;;0.13;;
9056;SDS011;4563;54.756;9.400;2024-02-15T13:15:01;0.20;;;0.20;;
9056;SDS011;4563;54.756;9.400;2024-02-15T13:17:30;0.20;;;0.20;;
9056;SDS011;4563;54.756;9.400;2024-02-15T13:19:58;0.20;;;0.20;;
9056;SDS011;4563;54.756;9.400;2024-02-15T13:22:31;0.13;;;0.13;;
9056;SDS011;4563;54.756;9.400;2024-02-15T13:24:59;0.20;;;0.20;;
9056;SDS011;4563;54.756;9.400;2024-02-15T13:27:28;0.20;;;0.20;;
9056;SDS011;4563;54.756;9.400;2024-02-15T13:29:56;0.20;;;0.20;;
9056;SDS011;4563;54.756;9.400;2024-02-15T13:32:23;0.10;;;0.10;;
9056;SDS011;4563;54.756;9.400;2024-02-15T13:34:50;0.20;;;0.20;;
9056;SDS011;4563;54.756;9.400;2024-02-15T13:37:21;0.10;;;0.10;;
9056;SDS011;4563;54.756;9.400;2024-02-15T13:39:50;0.10;;;0.10;;
9056;SDS011;4563;54.756;9.400;2024-02-15T13:42:17;0.20;;;0.20;;
9056;SDS011;4563;54.756;9.400;2024-02-15T13:44:44;0.17;;;0.17;;
9056;SDS011;4563;54.756;9.400;2024-02-15T13:47:12;0.10;;;0.10;;
9056;SDS011;4563;54.756;9.400;2024-02-15T13:49:39;0.17;;;0.17;;
9056;SDS011;4563;54.756;9.400;2024-02-15T13:52:06;0.10;;;0.10;;
9056;SDS011;4563;54.756;9.400;2024-02-15T13:54:33;0.10;;;0.10;;
9056;SDS011;4563;54.756;9.400;2024-02-15T13:57:01;0.10;;;0.10;;
9056;SDS011;4563;54.756;9.400;2024-02-15T13:59:28;0.10;;;0.10;;
9056;SDS011;4563;54.756;9.400;2024-02-15T14:01:55;0.10;;;0.10;;
9056;SDS011;4563;54.756;9.400;2024-02-15T14:04:23;0.10;;;0.10;;
9056;SDS011;4563;54.756;9.400;2024-02-15T14:06:51;0.10;;;0.10;;
9056;SDS011;4563;54.756;9.400;2024-02-15T14:09:21;0.10;;;0.10;;
9056;SDS011;4563;54.756;9.400;2024-02-15T14:11:51;0.20;;;0.20;;
9056;SDS011;4563;54.756;9.400;2024-02-15T14:14:19;0.10;;;0.10;;
9056;SDS011;4563;54.756;9.400;2024-02-15T14:16:47;0.10;;;0.10;;
9056;SDS011;4563;54.756;9.400;2024-02-15T14:19:13;0.10;;;0.10;;
9056;SDS011;4563;54.756;9.400;2024-02-15T14:21:40;0.10;;;0.10;;
9056;SDS011;4563;54.756;9.400;2024-02-15T14:24:10;0.00;;;0.00;;
9056;SDS011;4563;54.756;9.400;2024-02-15T14:26:37;0.87;;;0.10;;
9056;SDS011;4563;54.756;9.400;2024-02-15T14:29:03;0.10;;;0.10;;
9056;SDS011;4563;54.756;9.400;2024-02-15T14:31:32;0.00;;;0.00;;
9056;SDS011;4563;54.756;9.400;2024-02-15T14:34:16;0.00;;;0.00;;
9056;SDS011;4563;54.756;9.400;2024-02-15T14:36:45;0.07;;;0.07;;
9056;SDS011;4563;54.756;9.400;2024-02-15T14:39:12;0.10;;;0.10;;
9056;SDS011;4563;54.756;9.400;2024-02-15T14:41:39;0.03;;;0.03;;
9056;SDS011;4563;54.756;9.400;2024-02-15T14:44:07;0.00;;;0.00;;
9056;SDS011;4563;54.756;9.400;2024-02-15T14:46:36;0.10;;;0.10;;
9056;SDS011;4563;54.756;9.400;2024-02-15T14:49:03;0.00;;;0.00;;
9056;SDS011;4563;54.756;9.400;2024-02-15T14:51:31;0.10;;;0.10;;
9056;SDS011;4563;54.756;9.400;2024-02-15T14:54:01;0.10;;;0.10;;
9056;SDS011;4563;54.756;9.400;2024-02-15T14:56:28;0.03;;;0.03;;
9056;SDS011;4563;54.756;9.400;2024-02-15T14:58:56;0.10;;;0.10;;
9056;SDS011;4563;54.756;9.400;2024-02-15T15:01:25;0.10;;;0.10;;
9056;SDS011;4563;54.756;9.400;2024-02-15T15:03:56;0.10;;;0.10;;
9056;SDS011;4563;54.756;9.400;2024-02-15T15:06:28;0.10;;;0.10;;
9056;SDS011;4563;54.756;9.400;2024-02-15T15:09:12;0.10;;;0.10;;
9056;SDS011;4563;54.756;9.400;2024-02-15T15:11:56;0.10;;;0.10;;
9056;SDS011;4563;54.756;9.400;2024-02-15T15:14:40;0.67;;;0.10;;
9056;SDS011;4563;54.756;9.400;2024-02-15T15:17:10;0.00;;;0.00;;
9056;SDS011;4563;54.756;9.400;2024-02-15T15:19:39;0.10;;;0.10;;
9056;SDS011;4563;54.756;9.400;2024-02-15T15:22:06;0.07;;;0.07;;
9056;SDS011;4563;54.756;9.400;2024-02-15T15:24:33;0.10;;;0.10;;
9056;SDS011;4563;54.756;9.400;2024-02-15T15:27:02;0.00;;;0.00;;
9056;SDS011;4563;54.756;9.400;2024-02-15T15:29:30;0.00;;;0.00;;
9056;SDS011;4563;54.756;9.400;2024-02-15T15:31:56;0.10;;;0.10;;
9056;SDS011;4563;54.756;9.400;2024-02-15T15:34:23;0.10;;;0.10;;
9056;SDS011;4563;54.756;9.400;2024-02-15T15:36:52;0.10;;;0.10;;